Kendall, Washington
Current Conditions -  °F | °C
As of 6:00 AM on Monday 20 Oct 2014 (Local Time) from CYXX Reporting Station
Light Rain Light Rain  
Wind Chill: 59°   Ceiling: 3000
Heat Index: 59°   Visibility: 10mi
Dew Point: 57°   Wind: 6mph
Humidity: 94%   Direction: 240°WSW
Pressure: 29.68"   Gusts: NA
Location:  48.8512°N, 121.903°W
Report Text: CYXX 201300Z 24005KT 10SM -RA FEW020 OVC030 15/14 A2968 RMK SF2SC6 SLP049 DENSITY ALT 400FT
Loading
Personal Weather Stations






























Interactive Weather Map New forecast layout! Learn more

10-Day Weather Forecast

Advertisements
Track Severe Weather on mobile